Time;durP1;ratioP1;P1;durP2;ratioP2;P2;SDS_P1;SDS_P2;PMS_P1;PMS_P2;Temp;Humidity;BMP_temperature;BMP_pressure;BME280_temperature;BME280_humidity;BME280_pressure;Samples;Min_cycle;Max_cycle;Signal;HPM_P1;HPM_P2
2022/03/10 00:02:15;;;;;;;21.13;12.90;;;;;;;;;;5000249;28;20057;-83
2022/03/10 00:04:41;;;;;;;20.35;12.40;;;;;;;;;;4995882;28;20069;-82
2022/03/10 00:07:06;;;;;;;20.77;12.68;;;;;;;;;;5013238;28;20473;-83
2022/03/10 00:09:32;;;;;;;21.45;13.27;;;;;;;;;;5015317;28;20042;-83
2022/03/10 00:12:00;;;;;;;22.13;13.07;;;;;;;;;;5001583;28;20053;-82
2022/03/10 00:14:26;;;;;;;22.98;13.63;;;;;;;;;;4997258;28;20057;-82
2022/03/10 00:16:52;;;;;;;23.70;13.25;;;;;;;;;;4995990;28;20045;-82
2022/03/10 00:19:17;;;;;;;22.77;13.27;;;;;;;;;;5000919;28;20180;-82
2022/03/10 00:21:43;;;;;;;20.20;13.35;;;;;;;;;;4996432;28;20113;-82
2022/03/10 00:24:09;;;;;;;26.00;14.30;;;;;;;;;;5011176;28;20089;-82
2022/03/10 00:26:34;;;;;;;21.42;12.70;;;;;;;;;;4997800;28;20061;-82
2022/03/10 00:29:00;;;;;;;22.95;13.60;;;;;;;;;;4999739;28;20034;-82
2022/03/10 00:31:25;;;;;;;21.85;12.93;;;;;;;;;;4992379;28;20042;-82
2022/03/10 00:33:50;;;;;;;22.27;13.60;;;;;;;;;;4999328;28;20045;-83
2022/03/10 00:36:16;;;;;;;22.33;13.32;;;;;;;;;;4996184;28;20397;-82
2022/03/10 00:38:41;;;;;;;24.17;13.98;;;;;;;;;;5014884;28;20030;-82
2022/03/10 00:41:10;;;;;;;21.27;13.07;;;;;;;;;;4995149;28;20034;-83
2022/03/10 00:43:35;;;;;;;23.48;14.05;;;;;;;;;;4994861;28;20053;-83
2022/03/10 00:46:02;;;;;;;23.13;13.68;;;;;;;;;;4999505;28;20038;-81
2022/03/10 00:48:27;;;;;;;22.77;13.77;;;;;;;;;;4994978;28;20385;-82
2022/03/10 00:50:53;;;;;;;24.65;14.40;;;;;;;;;;4997826;28;20034;-82
2022/03/10 00:53:18;;;;;;;23.67;13.77;;;;;;;;;;4994555;28;20038;-82
2022/03/10 00:55:43;;;;;;;24.75;14.80;;;;;;;;;;5005984;28;20104;-82
2022/03/10 00:58:12;;;;;;;24.48;14.70;;;;;;;;;;4994803;28;20041;-82
2022/03/10 01:00:37;;;;;;;23.98;14.35;;;;;;;;;;4993053;28;20547;-82
2022/03/10 01:03:03;;;;;;;24.35;14.27;;;;;;;;;;5009880;28;20064;-82
2022/03/10 01:05:28;;;;;;;25.98;14.43;;;;;;;;;;4994359;28;20046;-82
2022/03/10 01:07:54;;;;;;;22.98;14.07;;;;;;;;;;5000216;28;20556;-82
2022/03/10 01:10:19;;;;;;;22.23;13.95;;;;;;;;;;5012638;28;20038;-82
2022/03/10 01:12:45;;;;;;;22.58;14.23;;;;;;;;;;4992672;28;20103;-83
2022/03/10 01:15:16;;;;;;;25.35;14.93;;;;;;;;;;4996352;28;20041;-83
2022/03/10 01:17:41;;;;;;;25.42;14.60;;;;;;;;;;4995326;28;20564;-83
2022/03/10 01:20:07;;;;;;;24.10;15.32;;;;;;;;;;4993664;28;20124;-82
2022/03/10 01:22:34;;;;;;;27.38;15.30;;;;;;;;;;4997312;28;20042;-82
2022/03/10 01:24:59;;;;;;;25.67;15.57;;;;;;;;;;4995804;28;20029;-82
2022/03/10 01:27:24;;;;;;;24.38;15.30;;;;;;;;;;5007790;28;20299;-82
2022/03/10 01:29:50;;;;;;;25.13;14.30;;;;;;;;;;4996349;28;20041;-83
2022/03/10 01:32:15;;;;;;;23.73;14.70;;;;;;;;;;4997828;28;20112;-83
2022/03/10 01:34:41;;;;;;;25.08;14.73;;;;;;;;;;5000102;28;20042;-82
2022/03/10 01:37:06;;;;;;;25.10;15.15;;;;;;;;;;4992864;28;20041;-82
2022/03/10 01:39:32;;;;;;;25.85;16.00;;;;;;;;;;4997810;28;20176;-82
2022/03/10 01:42:03;;;;;;;25.25;15.05;;;;;;;;;;4996145;28;20045;-82
2022/03/10 01:44:29;;;;;;;25.98;15.45;;;;;;;;;;5014098;28;20128;-82
2022/03/10 01:46:55;;;;;;;26.20;15.60;;;;;;;;;;4996004;28;20046;-82
2022/03/10 01:49:20;;;;;;;27.90;15.65;;;;;;;;;;4992370;28;20045;-82
2022/03/10 01:51:46;;;;;;;24.38;14.80;;;;;;;;;;4996765;28;20149;-82
2022/03/10 01:54:11;;;;;;;25.45;14.93;;;;;;;;;;5000699;28;20038;-82
2022/03/10 01:56:38;;;;;;;26.70;15.57;;;;;;;;;;5010283;28;20161;-82
2022/03/10 01:59:03;;;;;;;28.45;15.63;;;;;;;;;;4997484;28;20042;-81
2022/03/10 02:01:29;;;;;;;25.30;14.52;;;;;;;;;;4995824;28;20111;-82
2022/03/10 02:03:58;;;;;;;27.13;15.68;;;;;;;;;;4997267;28;20037;-83
2022/03/10 02:06:24;;;;;;;25.83;15.57;;;;;;;;;;4996535;28;20751;-83
2022/03/10 02:11:34;;;;;;;26.38;15.57;;;;;;;;;;5013600;28;20048;-83
2022/03/10 02:17:19;;;;;;;26.35;16.25;;;;;;;;;;4995169;28;20393;-83
2022/03/10 02:19:29;;;;;;;26.70;15.80;;;;;;;;;;5012414;28;20954;-83
2022/03/10 02:21:57;;;;;;;30.60;16.83;;;;;;;;;;4993787;28;20033;-84
2022/03/10 02:24:22;;;;;;;31.17;17.35;;;;;;;;;;4996875;28;20607;-84
2022/03/10 02:26:47;;;;;;;29.25;16.88;;;;;;;;;;4992970;28;20034;-83
2022/03/10 02:29:13;;;;;;;28.52;16.58;;;;;;;;;;4994810;28;20032;-84
2022/03/10 02:31:40;;;;;;;27.10;16.42;;;;;;;;;;4991886;28;20099;-83
2022/03/10 02:34:05;;;;;;;29.25;16.58;;;;;;;;;;5013292;28;20030;-84
2022/03/10 02:36:31;;;;;;;29.52;16.30;;;;;;;;;;4995851;28;20458;-84
2022/03/10 02:38:56;;;;;;;28.08;16.67;;;;;;;;;;4994709;28;20029;-84
2022/03/10 02:41:21;;;;;;;28.40;16.45;;;;;;;;;;4987618;28;20050;-83
2022/03/10 02:43:47;;;;;;;29.25;16.92;;;;;;;;;;4995608;28;20794;-83
2022/03/10 02:46:13;;;;;;;27.35;16.85;;;;;;;;;;5010401;28;20547;-82
2022/03/10 02:48:40;;;;;;;27.17;16.75;;;;;;;;;;5009186;28;20088;-82
2022/03/10 02:51:06;;;;;;;27.42;16.33;;;;;;;;;;4992448;28;20041;-84
2022/03/10 02:53:31;;;;;;;26.42;17.30;;;;;;;;;;5010047;28;20038;-81
2022/03/10 02:55:56;;;;;;;27.10;16.98;;;;;;;;;;4993626;28;20125;-82
2022/03/10 02:58:22;;;;;;;30.02;17.67;;;;;;;;;;4991049;28;20132;-82
2022/03/10 03:00:48;;;;;;;28.27;16.75;;;;;;;;;;5010002;28;20040;-82
2022/03/10 03:03:14;;;;;;;28.45;17.38;;;;;;;;;;4990834;28;20037;-84
2022/03/10 03:05:39;;;;;;;29.27;18.02;;;;;;;;;;4996881;28;20042;-84
2022/03/10 03:08:04;;;;;;;30.48;17.00;;;;;;;;;;4993891;28;20037;-83
2022/03/10 03:10:36;;;;;;;28.98;17.88;;;;;;;;;;5001263;28;20030;-83
2022/03/10 03:13:02;;;;;;;29.58;18.27;;;;;;;;;;4993495;28;20042;-82
2022/03/10 03:15:30;;;;;;;31.75;18.88;;;;;;;;;;4993921;28;20038;-82
2022/03/10 03:17:57;;;;;;;30.10;18.45;;;;;;;;;;4992957;28;20064;-83
2022/03/10 03:20:22;;;;;;;34.77;18.73;;;;;;;;;;4984349;28;20057;-83
2022/03/10 03:22:48;;;;;;;31.17;18.23;;;;;;;;;;4995486;28;20061;-83
2022/03/10 03:25:17;;;;;;;31.48;18.38;;;;;;;;;;4992405;28;20052;-83
2022/03/10 03:27:43;;;;;;;29.85;17.45;;;;;;;;;;5010672;28;20054;-83
2022/03/10 03:30:09;;;;;;;30.02;18.60;;;;;;;;;;4996768;28;20374;-83
2022/03/10 03:32:34;;;;;;;29.15;17.50;;;;;;;;;;4993145;28;20030;-84
2022/03/10 03:35:00;;;;;;;31.25;17.95;;;;;;;;;;4997034;28;21023;-84
2022/03/10 03:37:25;;;;;;;32.22;18.50;;;;;;;;;;5011776;28;20037;-83
2022/03/10 03:39:50;;;;;;;31.73;18.30;;;;;;;;;;5005315;28;20045;-83
2022/03/10 03:42:16;;;;;;;38.45;19.20;;;;;;;;;;4994586;28;20099;-84
2022/03/10 03:44:44;;;;;;;30.90;17.80;;;;;;;;;;4999882;28;20119;-83
2022/03/10 03:47:09;;;;;;;31.50;18.67;;;;;;;;;;4992865;28;20045;-84
2022/03/10 03:49:35;;;;;;;31.88;19.17;;;;;;;;;;4994537;28;20041;-83
2022/03/10 03:52:00;;;;;;;31.27;18.33;;;;;;;;;;4992200;28;20026;-83
2022/03/10 03:54:25;;;;;;;30.27;19.13;;;;;;;;;;4993685;28;20037;-84
2022/03/10 03:56:51;;;;;;;34.60;18.52;;;;;;;;;;4977443;28;20399;-83
2022/03/10 03:59:16;;;;;;;27.95;17.58;;;;;;;;;;5014883;28;20037;-84
2022/03/10 04:01:41;;;;;;;34.67;18.48;;;;;;;;;;4991439;28;20034;-83
2022/03/10 04:04:07;;;;;;;32.72;18.38;;;;;;;;;;5009154;28;20048;-83
2022/03/10 04:06:32;;;;;;;31.38;18.70;;;;;;;;;;4995087;28;20073;-83
2022/03/10 04:08:57;;;;;;;31.60;18.80;;;;;;;;;;4998733;28;20034;-83
2022/03/10 04:11:23;;;;;;;31.92;18.67;;;;;;;;;;4993242;28;20069;-84
2022/03/10 04:13:48;;;;;;;32.33;18.25;;;;;;;;;;4995384;28;20050;-83
2022/03/10 04:16:13;;;;;;;32.22;18.85;;;;;;;;;;4987862;28;20392;-84
2022/03/10 04:18:39;;;;;;;33.80;18.70;;;;;;;;;;4988451;28;20263;-84
2022/03/10 04:21:04;;;;;;;32.63;18.35;;;;;;;;;;4983390;28;20065;-81
2022/03/10 04:23:30;;;;;;;35.05;20.02;;;;;;;;;;4994663;28;20437;-81
2022/03/10 04:25:55;;;;;;;32.42;19.40;;;;;;;;;;4998372;28;20099;-81
2022/03/10 04:28:22;;;;;;;35.40;19.10;;;;;;;;;;4989324;28;20048;-82
2022/03/10 04:30:47;;;;;;;31.95;18.45;;;;;;;;;;4992091;28;20030;-82
2022/03/10 04:33:13;;;;;;;32.05;18.77;;;;;;;;;;4997878;28;20038;-82
2022/03/10 04:35:39;;;;;;;32.97;19.70;;;;;;;;;;5011802;28;20026;-82
2022/03/10 04:38:04;;;;;;;30.25;19.10;;;;;;;;;;4997291;28;20052;-81
2022/03/10 04:40:31;;;;;;;33.17;19.92;;;;;;;;;;4995798;28;20045;-82
2022/03/10 04:42:57;;;;;;;32.25;18.17;;;;;;;;;;4996531;28;20500;-81
2022/03/10 04:45:23;;;;;;;30.88;18.63;;;;;;;;;;4999430;28;20045;-81
2022/03/10 04:47:48;;;;;;;35.25;19.35;;;;;;;;;;5009844;28;20034;-81
2022/03/10 04:50:15;;;;;;;32.15;19.85;;;;;;;;;;4992997;28;20393;-81
2022/03/10 04:52:41;;;;;;;32.97;18.38;;;;;;;;;;4993550;28;20459;-81
2022/03/10 04:55:07;;;;;;;33.22;19.63;;;;;;;;;;4993377;28;20033;-82
2022/03/10 04:57:34;;;;;;;32.53;19.15;;;;;;;;;;4993368;28;20068;-82
2022/03/10 04:59:59;;;;;;;33.45;18.63;;;;;;;;;;4982596;28;20057;-81
2022/03/10 05:02:24;;;;;;;34.13;19.23;;;;;;;;;;4993918;28;20037;-80
2022/03/10 05:04:50;;;;;;;35.55;19.27;;;;;;;;;;4993504;28;20354;-80
2022/03/10 05:07:15;;;;;;;30.95;18.70;;;;;;;;;;4990106;28;20081;-80
2022/03/10 05:09:46;;;;;;;33.80;19.50;;;;;;;;;;5003752;28;20034;-82
2022/03/10 05:12:12;;;;;;;33.50;19.00;;;;;;;;;;4990926;28;20486;-81
2022/03/10 05:14:38;;;;;;;37.22;20.67;;;;;;;;;;5013272;28;20049;-83
2022/03/10 05:17:03;;;;;;;35.47;19.67;;;;;;;;;;5009883;28;20547;-82
2022/03/10 05:19:29;;;;;;;35.35;20.27;;;;;;;;;;5011441;28;20041;-82
2022/03/10 05:21:54;;;;;;;36.97;20.27;;;;;;;;;;5008831;28;20038;-82
2022/03/10 05:24:20;;;;;;;31.33;19.35;;;;;;;;;;5009715;28;20034;-82
2022/03/10 05:26:45;;;;;;;33.90;19.33;;;;;;;;;;5014150;28;20489;-82
2022/03/10 05:29:11;;;;;;;36.80;19.60;;;;;;;;;;5011180;28;20042;-82
2022/03/10 05:31:37;;;;;;;35.63;19.98;;;;;;;;;;4994297;28;20477;-85
2022/03/10 05:34:03;;;;;;;37.47;19.92;;;;;;;;;;5013003;28;20042;-80
2022/03/10 05:36:28;;;;;;;37.28;20.15;;;;;;;;;;4997259;28;20081;-79
2022/03/10 05:38:53;;;;;;;35.75;20.38;;;;;;;;;;4999726;28;20086;-81
2022/03/10 05:41:19;;;;;;;37.60;19.45;;;;;;;;;;4994992;28;20038;-79
2022/03/10 05:43:44;;;;;;;38.42;20.75;;;;;;;;;;5014146;28;20068;-80
2022/03/10 05:46:10;;;;;;;32.22;19.63;;;;;;;;;;5012414;28;20038;-80
2022/03/10 05:48:35;;;;;;;35.85;20.17;;;;;;;;;;5000802;28;20044;-80
2022/03/10 05:51:01;;;;;;;34.53;20.17;;;;;;;;;;4997983;28;20026;-79
2022/03/10 05:53:26;;;;;;;36.15;22.10;;;;;;;;;;4996729;28;20113;-79
2022/03/10 05:55:52;;;;;;;36.33;21.27;;;;;;;;;;4993693;28;20048;-79
2022/03/10 05:58:18;;;;;;;37.20;21.50;;;;;;;;;;4999876;28;20041;-79
2022/03/10 06:00:44;;;;;;;35.90;19.92;;;;;;;;;;5016375;28;20034;-80
2022/03/10 06:03:09;;;;;;;33.45;20.42;;;;;;;;;;4993738;28;20037;-81
2022/03/10 06:05:35;;;;;;;35.22;20.15;;;;;;;;;;4981361;28;20375;-80
2022/03/10 06:08:00;;;;;;;40.92;22.02;;;;;;;;;;4994318;28;20121;-81
2022/03/10 06:10:25;;;;;;;35.92;20.30;;;;;;;;;;4994976;28;20037;-81
2022/03/10 06:12:51;;;;;;;35.42;20.13;;;;;;;;;;5010918;28;20068;-80
2022/03/10 06:15:17;;;;;;;37.80;20.38;;;;;;;;;;4996848;28;20084;-81
2022/03/10 06:17:42;;;;;;;36.45;21.00;;;;;;;;;;4994618;28;20033;-80
2022/03/10 06:20:08;;;;;;;38.05;20.33;;;;;;;;;;4995201;28;20087;-83
2022/03/10 06:22:34;;;;;;;35.75;20.67;;;;;;;;;;4991868;28;20042;-84
2022/03/10 06:25:00;;;;;;;35.55;21.02;;;;;;;;;;4993980;28;20113;-83
2022/03/10 06:27:26;;;;;;;36.78;21.20;;;;;;;;;;4992700;28;20033;-83
2022/03/10 06:29:53;;;;;;;37.05;20.95;;;;;;;;;;4993013;28;20060;-82
2022/03/10 06:32:19;;;;;;;37.90;20.95;;;;;;;;;;5009747;28;20041;-83
2022/03/10 06:34:46;;;;;;;34.92;20.70;;;;;;;;;;5001496;28;20057;-83
2022/03/10 06:37:12;;;;;;;37.85;20.73;;;;;;;;;;4997703;28;20034;-83
2022/03/10 06:39:38;;;;;;;37.30;21.08;;;;;;;;;;4986809;28;20498;-83
2022/03/10 06:42:04;;;;;;;33.60;19.88;;;;;;;;;;4997218;28;20038;-82
2022/03/10 06:44:30;;;;;;;36.20;20.85;;;;;;;;;;5010257;28;20839;-82
2022/03/10 06:46:55;;;;;;;40.65;20.70;;;;;;;;;;4993919;28;20417;-83
2022/03/10 06:49:21;;;;;;;37.85;21.23;;;;;;;;;;4990482;28;20046;-82
2022/03/10 06:51:47;;;;;;;39.45;21.83;;;;;;;;;;5008566;28;20034;-83
2022/03/10 06:54:13;;;;;;;40.25;21.45;;;;;;;;;;4979695;28;20037;-81
2022/03/10 06:56:38;;;;;;;39.33;21.50;;;;;;;;;;5006223;28;20046;-82
2022/03/10 06:59:04;;;;;;;39.22;21.38;;;;;;;;;;4989370;28;20053;-82
2022/03/10 07:01:30;;;;;;;38.35;21.48;;;;;;;;;;4981214;28;20034;-82
2022/03/10 07:03:57;;;;;;;36.25;20.88;;;;;;;;;;4998663;28;20100;-82
2022/03/10 07:06:23;;;;;;;38.22;21.42;;;;;;;;;;4999753;28;20064;-82
2022/03/10 07:08:48;;;;;;;35.38;19.92;;;;;;;;;;4992804;28;20881;-82
2022/03/10 07:11:13;;;;;;;35.95;20.52;;;;;;;;;;4992834;28;20034;-82
2022/03/10 07:13:41;;;;;;;36.92;20.70;;;;;;;;;;5001483;28;20042;-84
2022/03/10 07:16:06;;;;;;;34.10;19.65;;;;;;;;;;4991345;28;20061;-82
2022/03/10 07:18:31;;;;;;;38.05;20.58;;;;;;;;;;5008515;28;20061;-83
2022/03/10 07:20:57;;;;;;;35.85;20.48;;;;;;;;;;4989705;28;20445;-82
2022/03/10 07:23:22;;;;;;;36.92;20.65;;;;;;;;;;4989765;28;20042;-82
2022/03/10 07:26:08;;;;;;;37.75;21.20;;;;;;;;;;5001829;28;20091;-83
2022/03/10 07:28:33;;;;;;;35.03;19.95;;;;;;;;;;4948127;28;20043;-84
2022/03/10 07:30:58;;;;;;;34.13;20.00;;;;;;;;;;4911670;28;20376;-82
2022/03/10 07:33:24;;;;;;;34.30;19.88;;;;;;;;;;4921623;28;20203;-84
2022/03/10 07:35:49;;;;;;;35.75;20.00;;;;;;;;;;4932297;28;20042;-83
2022/03/10 07:38:20;;;;;;;36.55;20.25;;;;;;;;;;4913963;28;20039;-81
2022/03/10 07:40:45;;;;;;;32.30;19.40;;;;;;;;;;4926658;28;20530;-84
2022/03/10 07:43:10;;;;;;;38.72;19.80;;;;;;;;;;4917271;28;20081;-83
2022/03/10 07:45:36;;;;;;;34.92;19.88;;;;;;;;;;4914518;28;20137;-84
2022/03/10 07:48:01;;;;;;;33.80;19.02;;;;;;;;;;4934741;28;20039;-84
2022/03/10 07:50:27;;;;;;;35.33;19.05;;;;;;;;;;4916575;28;20500;-84
2022/03/10 07:52:52;;;;;;;37.13;18.83;;;;;;;;;;4908414;28;20057;-84
2022/03/10 07:55:17;;;;;;;32.88;18.67;;;;;;;;;;4918072;28;20094;-86
2022/03/10 07:57:43;;;;;;;31.65;18.20;;;;;;;;;;4933931;28;20126;-83
2022/03/10 08:00:09;;;;;;;34.83;18.55;;;;;;;;;;4909328;28;20038;-86
2022/03/10 08:02:35;;;;;;;30.88;18.48;;;;;;;;;;4932509;28;20043;-85
2022/03/10 08:05:01;;;;;;;30.15;18.35;;;;;;;;;;4948987;28;20049;-86
2022/03/10 08:07:32;;;;;;;32.47;18.15;;;;;;;;;;5011970;28;20042;-84
2022/03/10 08:09:58;;;;;;;29.83;18.45;;;;;;;;;;5003383;28;20053;-84
2022/03/10 08:12:29;;;;;;;29.85;17.92;;;;;;;;;;4997217;28;20469;-83
2022/03/10 08:14:55;;;;;;;34.55;18.27;;;;;;;;;;5010465;28;20040;-84
2022/03/10 08:17:23;;;;;;;28.67;17.20;;;;;;;;;;4999823;28;20408;-86
2022/03/10 08:19:48;;;;;;;29.52;17.98;;;;;;;;;;4993886;28;20492;-85
2022/03/10 08:22:16;;;;;;;31.88;17.92;;;;;;;;;;4989756;28;20041;-83
2022/03/10 08:24:43;;;;;;;28.63;17.48;;;;;;;;;;5011795;28;20052;-86
2022/03/10 08:27:08;;;;;;;30.27;17.10;;;;;;;;;;5009994;28;20041;-83
2022/03/10 08:29:43;;;;;;;29.08;17.77;;;;;;;;;;4999726;28;20559;-84
2022/03/10 08:32:09;;;;;;;27.70;17.92;;;;;;;;;;5008820;28;20033;-88
2022/03/10 08:34:35;;;;;;;31.05;16.95;;;;;;;;;;4999351;28;20047;-87
2022/03/10 08:37:21;;;;;;;29.80;18.17;;;;;;;;;;5011273;28;20611;-89
2022/03/10 08:39:46;;;;;;;27.60;16.88;;;;;;;;;;4951403;28;20126;-87
2022/03/10 08:42:12;;;;;;;29.98;17.27;;;;;;;;;;4932812;28;20187;-86
2022/03/10 08:44:37;;;;;;;28.63;17.67;;;;;;;;;;4937663;28;20118;-86
2022/03/10 08:47:03;;;;;;;27.65;17.33;;;;;;;;;;4916584;28;20043;-87
2022/03/10 08:49:28;;;;;;;27.40;16.95;;;;;;;;;;4952591;28;20122;-86
2022/03/10 08:51:54;;;;;;;29.23;17.85;;;;;;;;;;4934034;28;20039;-87
2022/03/10 08:54:20;;;;;;;28.63;18.50;;;;;;;;;;4935081;28;20629;-86
2022/03/10 08:56:45;;;;;;;31.10;18.45;;;;;;;;;;4935168;28;20145;-87
2022/03/10 08:59:11;;;;;;;31.10;18.70;;;;;;;;;;4936917;28;20050;-87
2022/03/10 09:01:36;;;;;;;28.63;17.65;;;;;;;;;;4914186;28;20046;-87
2022/03/10 09:04:02;;;;;;;31.17;18.27;;;;;;;;;;4922700;28;20050;-86
2022/03/10 09:06:29;;;;;;;27.30;18.95;;;;;;;;;;4918412;28;20086;-88
2022/03/10 09:08:54;;;;;;;26.70;19.10;;;;;;;;;;4950236;28;20431;-86
2022/03/10 09:11:19;;;;;;;27.83;18.95;;;;;;;;;;4919305;28;20027;-85
2022/03/10 09:13:48;;;;;;;29.67;18.80;;;;;;;;;;4946373;29;21128;-86
2022/03/10 09:16:15;;;;;;;27.23;17.67;;;;;;;;;;4951241;28;20149;-85
2022/03/10 09:18:41;;;;;;;32.10;19.55;;;;;;;;;;4992668;28;20066;-86
2022/03/10 09:21:07;;;;;;;30.08;19.38;;;;;;;;;;5005393;28;20038;-85
2022/03/10 09:23:32;;;;;;;29.35;18.05;;;;;;;;;;4995148;28;20397;-84
2022/03/10 09:25:57;;;;;;;31.98;19.20;;;;;;;;;;4995773;28;20041;-86
2022/03/10 09:28:23;;;;;;;26.95;18.40;;;;;;;;;;4992607;28;20042;-86
2022/03/10 09:30:48;;;;;;;26.20;18.48;;;;;;;;;;4990927;28;20030;-85
2022/03/10 09:33:13;;;;;;;26.67;17.70;;;;;;;;;;4990473;28;20037;-84
2022/03/10 09:35:59;;;;;;;29.50;18.10;;;;;;;;;;4993900;28;20026;-83
2022/03/10 09:38:24;;;;;;;26.27;18.50;;;;;;;;;;4950152;28;20094;-84
2022/03/10 09:40:53;;;;;;;27.13;18.95;;;;;;;;;;4955646;28;20104;-85
2022/03/10 09:43:23;;;;;;;27.55;16.90;;;;;;;;;;4947937;28;20043;-86
2022/03/10 09:45:51;;;;;;;26.63;17.88;;;;;;;;;;4938568;28;20524;-85
2022/03/10 09:48:17;;;;;;;27.95;17.63;;;;;;;;;;4956027;28;20043;-86
2022/03/10 09:50:43;;;;;;;26.00;18.15;;;;;;;;;;4956666;28;20045;-86
2022/03/10 09:53:09;;;;;;;27.58;17.58;;;;;;;;;;4973022;28;21101;-87
2022/03/10 09:55:34;;;;;;;27.42;16.55;;;;;;;;;;4934109;28;20123;-85
2022/03/10 09:58:01;;;;;;;24.40;16.00;;;;;;;;;;4954369;28;20441;-84
2022/03/10 10:00:27;;;;;;;25.03;16.17;;;;;;;;;;4953659;28;20642;-85
2022/03/10 10:02:52;;;;;;;25.75;16.90;;;;;;;;;;4954238;28;20049;-86
2022/03/10 10:05:22;;;;;;;24.30;16.33;;;;;;;;;;4955385;28;20322;-85
2022/03/10 10:08:04;;;;;;;26.38;16.30;;;;;;;;;;4948960;28;20053;-84
2022/03/10 10:10:31;;;;;;;27.63;17.40;;;;;;;;;;4954205;28;20065;-84
2022/03/10 10:12:56;;;;;;;28.65;17.30;;;;;;;;;;4932075;28;20051;-84
2022/03/10 10:15:22;;;;;;;29.13;16.55;;;;;;;;;;4974307;28;20081;-86
2022/03/10 10:17:56;;;;;;;27.88;16.25;;;;;;;;;;4995207;28;20048;-86
2022/03/10 10:20:22;;;;;;;23.48;16.00;;;;;;;;;;4992354;28;20080;-88
2022/03/10 10:22:51;;;;;;;25.55;14.95;;;;;;;;;;4993240;28;20038;-84
2022/03/10 10:25:23;;;;;;;25.83;15.05;;;;;;;;;;4995053;28;20033;-84
2022/03/10 10:27:48;;;;;;;27.00;15.50;;;;;;;;;;5013127;28;20857;-84
2022/03/10 10:30:14;;;;;;;23.13;14.75;;;;;;;;;;4992439;28;20034;-85
2022/03/10 10:32:42;;;;;;;26.88;15.38;;;;;;;;;;4994949;28;20034;-85
2022/03/10 10:35:09;;;;;;;24.92;14.07;;;;;;;;;;5010088;28;20037;-85
2022/03/10 10:37:37;;;;;;;25.25;15.27;;;;;;;;;;4994925;28;20046;-84
2022/03/10 10:40:04;;;;;;;23.83;14.02;;;;;;;;;;5008840;28;20034;-85
2022/03/10 10:42:31;;;;;;;20.83;13.82;;;;;;;;;;5009665;28;20060;-86
2022/03/10 10:44:59;;;;;;;22.88;13.93;;;;;;;;;;4992203;28;20033;-86
2022/03/10 10:47:27;;;;;;;23.42;13.38;;;;;;;;;;5009603;28;20069;-87
2022/03/10 10:49:57;;;;;;;19.52;13.13;;;;;;;;;;5010294;28;20505;-86
2022/03/10 10:52:23;;;;;;;20.08;14.25;;;;;;;;;;4991041;28;20282;-85
2022/03/10 10:54:48;;;;;;;20.25;13.07;;;;;;;;;;4993409;28;20037;-86
2022/03/10 10:57:20;;;;;;;20.15;13.43;;;;;;;;;;5006653;28;20052;-85
2022/03/10 10:59:46;;;;;;;22.48;13.70;;;;;;;;;;4993572;28;20091;-86
2022/03/10 11:02:18;;;;;;;19.50;13.60;;;;;;;;;;4992114;28;20700;-85
2022/03/10 11:04:49;;;;;;;20.60;13.73;;;;;;;;;;4993208;28;20489;-81
2022/03/10 11:07:14;;;;;;;22.33;14.48;;;;;;;;;;4991343;28;20034;-82
2022/03/10 11:09:46;;;;;;;19.40;14.02;;;;;;;;;;4994227;28;20568;-83
2022/03/10 11:12:13;;;;;;;19.02;13.75;;;;;;;;;;5010472;28;20400;-83
2022/03/10 11:14:43;;;;;;;17.45;13.35;;;;;;;;;;4993289;28;20120;-82
2022/03/10 11:17:09;;;;;;;19.40;13.45;;;;;;;;;;4993381;28;20037;-81
2022/03/10 11:19:39;;;;;;;19.48;12.40;;;;;;;;;;4990155;28;20533;-81
2022/03/10 11:22:43;;;;;;;20.10;13.05;;;;;;;;;;4979108;28;20071;-82
2022/03/10 11:25:37;;;;;;;18.40;12.50;;;;;;;;;;5007434;28;20030;-84
2022/03/10 11:28:04;;;;;;;18.63;12.95;;;;;;;;;;4992366;28;20129;-84
2022/03/10 11:30:32;;;;;;;;;;;;;;;;;;4994370;28;20072;-81
2022/03/10 11:33:01;;;;;;;15.50;11.00;;;;;;;;;;4991433;28;19917;-81
2022/03/10 11:35:41;;;;;;;14.60;10.65;;;;;;;;;;4990988;28;20073;-81
2022/03/10 11:38:06;;;;;;;15.25;11.50;;;;;;;;;;4986193;28;20096;-83
2022/03/10 11:40:49;;;;;;;16.85;11.13;;;;;;;;;;4990625;28;20037;-81
2022/03/10 11:43:33;;;;;;;16.45;11.55;;;;;;;;;;4991657;28;20045;-81
2022/03/10 11:46:22;;;;;;;15.90;11.23;;;;;;;;;;4984568;28;20500;-82
2022/03/10 11:49:03;;;;;;;14.15;10.70;;;;;;;;;;5004162;28;20049;-83
2022/03/10 11:51:54;;;;;;;14.40;10.82;;;;;;;;;;4997666;28;20095;-81
2022/03/10 11:54:41;;;;;;;13.60;10.57;;;;;;;;;;4997436;28;20128;-83
2022/03/10 11:57:08;;;;;;;13.43;10.75;;;;;;;;;;5006825;28;20083;-83
2022/03/10 11:59:37;;;;;;;13.70;11.45;;;;;;;;;;4991087;28;20049;-83
2022/03/10 12:02:03;;;;;;;14.05;11.30;;;;;;;;;;5010282;28;20064;-86
2022/03/10 12:04:36;;;;;;;16.10;10.98;;;;;;;;;;4991654;28;20038;-85
2022/03/10 12:07:03;;;;;;;14.43;11.57;;;;;;;;;;5008369;28;20650;-82
2022/03/10 12:09:33;;;;;;;14.38;11.20;;;;;;;;;;5013919;28;20026;-82
2022/03/10 12:12:15;;;;;;;13.10;11.18;;;;;;;;;;5008722;28;20038;-83
2022/03/10 12:14:41;;;;;;;16.50;11.20;;;;;;;;;;4996651;28;20617;-83
2022/03/10 12:17:45;;;;;;;14.80;11.45;;;;;;;;;;4988663;28;20057;-84
2022/03/10 12:20:21;;;;;;;14.95;11.35;;;;;;;;;;4889402;29;20040;-82
2022/03/10 12:22:58;;;;;;;15.18;11.35;;;;;;;;;;4874059;29;20051;-82
2022/03/10 12:25:24;;;;;;;14.85;11.60;;;;;;;;;;4905858;29;20067;-82
2022/03/10 12:27:53;;;;;;;20.23;11.98;;;;;;;;;;4905203;29;20075;-81
2022/03/10 12:30:26;;;;;;;18.30;11.60;;;;;;;;;;4887520;29;20052;-83
2022/03/10 12:32:53;;;;;;;15.05;11.35;;;;;;;;;;4889736;29;20040;-82
2022/03/10 12:35:20;;;;;;;16.27;11.95;;;;;;;;;;4890176;29;20040;-84
2022/03/10 12:37:48;;;;;;;14.53;11.43;;;;;;;;;;4876643;29;20040;-82
2022/03/10 12:40:21;;;;;;;15.85;11.77;;;;;;;;;;4887805;29;20044;-82
2022/03/10 12:42:47;;;;;;;16.88;12.27;;;;;;;;;;4889696;29;20040;-83
2022/03/10 12:45:18;;;;;;;16.77;12.73;;;;;;;;;;4904909;29;20044;-81
2022/03/10 12:47:50;;;;;;;17.77;13.00;;;;;;;;;;4906662;29;20051;-81
2022/03/10 12:50:15;;;;;;;17.67;12.63;;;;;;;;;;4912497;28;20133;-81
2022/03/10 12:52:41;;;;;;;16.77;12.10;;;;;;;;;;4990565;28;20187;-83
2022/03/10 12:55:10;;;;;;;18.05;13.05;;;;;;;;;;4998154;28;20060;-83
2022/03/10 12:57:38;;;;;;;17.25;12.48;;;;;;;;;;4981497;28;20077;-83
2022/03/10 13:00:21;;;;;;;17.90;12.80;;;;;;;;;;4998592;28;20512;-84
2022/03/10 13:02:47;;;;;;;15.65;11.88;;;;;;;;;;5006820;28;20096;-82
2022/03/10 13:05:19;;;;;;;18.65;14.38;;;;;;;;;;4995118;28;20037;-83
2022/03/10 13:07:44;;;;;;;18.30;13.50;;;;;;;;;;4997967;28;20046;-83
2022/03/10 13:10:11;;;;;;;19.05;14.15;;;;;;;;;;4994561;28;20042;-84
2022/03/10 13:12:42;;;;;;;18.58;13.65;;;;;;;;;;4996027;28;20037;-82
2022/03/10 13:15:09;;;;;;;19.85;14.55;;;;;;;;;;4999216;28;20044;-82
2022/03/10 13:17:39;;;;;;;19.33;14.40;;;;;;;;;;4998714;28;20108;-84
2022/03/10 13:20:15;;;;;;;21.95;15.05;;;;;;;;;;5009342;28;20050;-86
2022/03/10 13:22:49;;;;;;;19.70;15.02;;;;;;;;;;4986078;28;20045;-83
2022/03/10 13:25:18;;;;;;;21.50;16.10;;;;;;;;;;4988625;28;20508;-82
2022/03/10 13:27:46;;;;;;;20.42;15.88;;;;;;;;;;4995331;28;20048;-82
2022/03/10 13:30:25;;;;;;;21.23;15.43;;;;;;;;;;5011903;28;20125;-85
2022/03/10 13:32:51;;;;;;;19.63;15.18;;;;;;;;;;5011112;28;20036;-83
2022/03/10 13:35:44;;;;;;;18.38;13.30;;;;;;;;;;4990094;28;20068;-85
2022/03/10 13:38:19;;;;;;;21.35;14.48;;;;;;;;;;4998121;28;20117;-84
2022/03/10 13:40:46;;;;;;;20.00;13.90;;;;;;;;;;5008778;28;20045;-82
2022/03/10 13:43:26;;;;;;;18.42;13.90;;;;;;;;;;5012272;28;20117;-82
2022/03/10 13:45:52;;;;;;;19.50;13.82;;;;;;;;;;4982673;28;20393;-83
2022/03/10 13:48:18;;;;;;;18.42;13.77;;;;;;;;;;5009477;28;20042;-84
2022/03/10 13:50:45;;;;;;;17.73;13.15;;;;;;;;;;4996254;28;20038;-83
2022/03/10 13:53:11;;;;;;;17.42;12.75;;;;;;;;;;4988700;28;20038;-83
2022/03/10 13:55:43;;;;;;;16.52;12.80;;;;;;;;;;4984365;28;20037;-82
2022/03/10 13:58:09;;;;;;;16.58;12.77;;;;;;;;;;4995893;28;20056;-84
2022/03/10 14:00:37;;;;;;;17.67;12.93;;;;;;;;;;4994637;28;20029;-83
2022/03/10 14:03:12;;;;;;;16.75;12.98;;;;;;;;;;4995326;28;20072;-82
2022/03/10 14:05:43;;;;;;;17.63;12.70;;;;;;;;;;5011754;28;20041;-84
2022/03/10 14:08:18;;;;;;;18.58;12.77;;;;;;;;;;5027389;28;20511;-83
2022/03/10 14:10:45;;;;;;;14.10;10.60;;;;;;;;;;4997174;28;20037;-82
2022/03/10 14:13:11;;;;;;;15.38;11.57;;;;;;;;;;5012358;28;20049;-83
2022/03/10 14:15:42;;;;;;;13.95;11.00;;;;;;;;;;4994892;28;20030;-84
2022/03/10 14:18:12;;;;;;;14.55;11.02;;;;;;;;;;4995667;28;20493;-82
2022/03/10 14:20:45;;;;;;;15.55;11.23;;;;;;;;;;5007625;28;20575;-82
2022/03/10 14:23:14;;;;;;;16.95;11.90;;;;;;;;;;4988503;28;20033;-82
2022/03/10 14:25:42;;;;;;;16.65;11.23;;;;;;;;;;4995366;28;20091;-80
2022/03/10 14:28:10;;;;;;;16.08;11.60;;;;;;;;;;5009095;28;20056;-80